CheckWX is a tool to help pilots better visualize weather data.  It is not intended as a substitute for an official pre-flight weather briefing.

14:02:18 UTC

KIZG METAR
Eastern Slopes Regional Airport
Fryeburg, Maine, USA
Current

8 mins ago

KIZG 211354Z AUTO 00000KT 10SM CLR 23/14 A3020 RMK AO2 SLP226 T02330139
Observed
Sep-21 @ 13:54 UTC
Visibility
10 SM
Flight Rules
VFR
Cloud Levels
  • Clear skies
Temperature
23°C / 73°F
Dewpoint
14°C / 57°F
Humidity
57%
Altimeter
30.2" Hg
Pressure
1022.72 hPa
Previous

1 hour ago

KIZG 211254Z AUTO 00000KT 10SM CLR 21/14 A3019 RMK AO2 SLP225 T02060144
Observed
Sep-21 @ 12:54 UTC
Visibility
10 SM
Flight Rules
VFR
Cloud Levels
  • Clear skies
Temperature
21°C / 70°F
Dewpoint
14°C / 57°F
Humidity
64%
Altimeter
30.19" Hg
Pressure
1022.32 hPa
Previous

2 hours ago

KIZG 211154Z AUTO 00000KT 10SM CLR 16/13 A3018 RMK AO2 SLP221 T01560133 10156 20089 51014
Observed
Sep-21 @ 11:54 UTC
Visibility
10 SM
Flight Rules
VFR
Cloud Levels
  • Clear skies
Temperature
16°C / 61°F
Dewpoint
13°C / 55°F
Humidity
83%
Altimeter
30.18" Hg
Pressure
1022.02 hPa